Villa Grove, CO

8:10 PM MDT on September 02, 2014 (GMT -0600)
Monarch Pass | Change Station
CLOSE
Current Station
Airport
Location: Monarch Pass,
Elevation: 12031 ft
Nearby Weather Stations

Elev 12031 ft 38.48 °N, 106.32 °W | Updated 10 minutes ago

Mostly Cloudy
Mostly Cloudy
54 °F
Feels Like 54 °F
N
17
Wind Variable Wind from West

Today
High -- | Low -- °F
--% Chance of Precip.
Yesterday
High -- | Low -- °F
Precip. -- in
6:35 AM 7:32 PM
First Quarter, 57% visible
Pressure 30.63 in
Visibility 10.0 miles
Clouds Mostly Cloudy 8000 ft
Dew Point 28 °F
Humidity 38%
Rainfall 0.00 in
Snow Depth Not available.
UV 0 out of 12
Pollen 10.00 out of 12
Air Quality Not available.
Flu Activity Not available.
METAR KMYP 030200Z AUTO 27015KT 10SM BKN080 12/M02 A3063 RMK AO2

More Conditions Fewer Conditions

Pressure 30.63 in
Visibility 10.0 miles
Clouds Mostly Cloudy 8000 ft
Dew Point 28 °F
Humidity 38%
Rainfall 0.00 in
Snow Depth Not available.
UV 0 out of 12
Pollen 10.00 out of 12
Air Quality Not available.
Flu Activity Not available.
METAR KMYP 030200Z AUTO 27015KT 10SM BKN080 12/M02 A3063 RMK AO2

More Conditions Fewer Conditions

10-Day Weather Forecast

Almanac

Astronomy

Sep. 02, 2014 Rise Set
Actual Time 6:35 AM MDT 7:32 PM MDT
Civil Twilight 6:08 AM MDT 7:59 PM MDT
Nautical Twilight 5:36 AM MDT 8:31 PM MDT
Astronomical Twilight 5:02 AM MDT 9:04 PM MDT
Moon 2:16 PM MDT (9/2) No Moon Set
Length of Visible Light 13h 51m
Length of Day
12h 57m
Tomorrow will be 2m 23s shorter.
First Quarter, 57% of the Moon is Illuminated
Today
First Quarter
Sep 8
Full
Sep 15
Last Quarter
Sep 24
New
Oct 1
First Quarter

Today's Extremes

State Highs State Lows

Community

WunderPhotos

Upload Photos

1,749,841 photos uploaded!

Nearby

Snow Depth

Station Depth Elevation
Cochetopa Pass 0 in 10020 ft
Rough And Tumble 0 in 10360 ft
Independence Pass 187 in 10600 ft
Butte 0 in 10160 ft
Ute Creek 0 in 10650 ft

Earthquake Activity

City Distance Mag. Time & Date
Trinidad, Colorado 108 miles 2.7 4:20 AM MDT
2014-08-31
Minimum magnitude displayed is 2.5.

Coastal Water Temperatures

Place Temperature
No Stations Reporting

Nearby Weather Stations